Time;durP1;ratioP1;P1;durP2;ratioP2;P2;SDS_P1;SDS_P2;PMS_P1;PMS_P2;Temp;Humidity;BMP_temperature;BMP_pressure;BME280_temperature;BME280_humidity;BME280_pressure;Samples;Min_cycle;Max_cycle;Signal;HPM_P1;HPM_P2
2023/05/31 00:00:16;;;;;;;10.67;5.80;;;15.20;92.10;;;14.91;62.52;101976.44;5076206;28;20656;-74
2023/05/31 00:02:50;;;;;;;13.07;6.00;;;15.10;92.10;;;14.94;62.21;101981.50;5075627;28;20233;-75
2023/05/31 00:05:23;;;;;;;11.20;5.40;;;15.20;91.90;;;14.93;62.47;101986.06;5074856;28;20197;-75
2023/05/31 00:07:57;;;;;;;8.17;5.07;;;15.10;92.10;;;14.93;62.29;101987.94;5075817;28;20190;-74
2023/05/31 00:10:30;;;;;;;9.57;5.57;;;15.20;92.00;;;14.83;62.82;101984.50;5075780;28;20277;-74
2023/05/31 00:13:03;;;;;;;10.27;5.57;;;15.00;92.10;;;14.62;63.04;101988.34;5075697;28;20312;-74
2023/05/31 00:15:37;;;;;;;9.17;5.77;;;14.80;92.90;;;14.55;63.18;101986.47;5075235;28;20585;-75
2023/05/31 00:18:10;;;;;;;11.27;5.33;;;14.70;92.70;;;14.58;62.87;101992.38;5075378;28;20280;-75
2023/05/31 00:20:43;;;;;;;9.90;5.37;;;14.70;92.70;;;14.58;63.43;101992.38;5075673;28;20193;-75
2023/05/31 00:23:17;;;;;;;11.07;5.53;;;14.80;92.60;;;14.60;63.35;101993.06;5075518;28;20194;-75
2023/05/31 00:25:51;;;;;;;11.80;5.70;;;14.80;92.60;;;14.56;62.90;101993.53;5075456;28;20573;-75
2023/05/31 00:28:24;;;;;;;10.10;5.20;;;14.80;92.50;;;14.65;62.48;101998.84;5075453;28;20293;-75
2023/05/31 00:30:58;;;;;;;8.83;5.07;;;14.90;92.40;;;14.59;62.66;101991.38;5075448;28;20216;-74
2023/05/31 00:33:32;;;;;;;9.00;5.20;;;14.80;92.40;;;14.56;62.70;101988.97;5075234;28;20272;-74
2023/05/31 00:36:05;;;;;;;8.43;4.97;;;14.80;92.40;;;14.46;62.78;101988.22;5075300;28;20277;-74
2023/05/31 00:38:38;;;;;;;9.03;5.37;;;14.70;92.30;;;14.40;62.60;101991.53;5075947;28;20205;-74
2023/05/31 00:41:14;;;;;;;8.83;5.10;;;14.60;92.70;;;14.45;62.70;101991.09;5075478;28;20256;-73
2023/05/31 00:43:48;;;;;;;8.83;5.47;;;14.70;92.50;;;14.33;63.54;101987.75;5074822;28;20677;-73
2023/05/31 00:46:32;;;;;;;7.50;5.67;;;14.60;92.60;;;14.43;62.83;101985.00;5075108;28;20281;-75
2023/05/31 00:49:05;;;;;;;9.20;5.50;;;14.70;92.70;;;14.29;62.68;101983.66;5074750;28;20190;-75
2023/05/31 00:51:40;;;;;;;8.73;5.53;;;14.60;92.60;;;14.29;63.39;101986.34;5074958;28;20233;-74
2023/05/31 00:54:13;;;;;;;10.30;5.30;;;14.50;92.80;;;14.16;63.59;101985.91;5074541;28;20642;-74
2023/05/31 00:56:47;;;;;;;7.83;5.50;;;14.40;92.90;;;14.16;63.74;101997.53;5074916;28;20273;-74
2023/05/31 00:59:21;;;;;;;9.47;4.97;;;14.40;93.00;;;14.18;63.29;102000.03;5074786;28;20224;-74
2023/05/31 01:01:58;;;;;;;9.77;5.93;;;14.40;92.90;;;14.13;64.19;102007.75;5074687;28;20308;-74
2023/05/31 01:04:33;;;;;;;7.57;4.97;;;14.40;93.10;;;14.13;63.72;101999.66;5074415;28;20185;-74
2023/05/31 01:07:06;;;;;;;7.37;5.33;;;14.40;93.10;;;14.06;64.26;101995.91;5074683;28;20276;-74
2023/05/31 01:09:42;;;;;;;9.30;5.33;;;14.40;93.10;;;13.94;64.17;101997.94;5074626;28;20281;-74
2023/05/31 01:12:30;;;;;;;9.93;5.50;;;14.30;93.10;;;13.89;63.36;101992.19;5074211;28;20724;-74
2023/05/31 01:15:17;;;;;;;8.83;5.70;;;14.10;93.40;;;13.96;64.13;102000.50;5074189;28;20755;-74
2023/05/31 01:18:03;;;;;;;9.07;5.30;;;14.20;93.40;;;13.87;64.76;101987.97;5074428;28;20194;-74
2023/05/31 01:20:39;;;;;;;7.93;5.50;;;14.20;93.30;;;13.84;63.78;101985.53;5074096;28;20646;-75
2023/05/31 01:23:49;;;;;;;9.57;6.00;;;14.10;93.20;;;13.80;63.75;101987.69;5074249;28;20300;-74
2023/05/31 01:26:37;;;;;;;8.53;5.40;;;14.00;93.40;;;13.69;64.01;101988.78;5073968;28;20284;-74
2023/05/31 01:29:18;;;;;;;10.07;5.50;;;13.90;93.50;;;13.70;64.27;101992.28;5074234;28;20190;-75
2023/05/31 01:31:53;;;;;;;8.40;5.30;;;13.90;93.60;;;13.57;64.75;101989.94;5074118;28;20308;-74
2023/05/31 01:34:27;;;;;;;12.43;5.57;;;13.80;93.50;;;13.61;64.10;101999.41;5074077;28;20263;-73
2023/05/31 01:37:00;;;;;;;8.23;5.20;;;13.90;93.60;;;13.58;64.69;102007.78;5074837;28;20225;-71
2023/05/31 01:39:34;;;;;;;8.93;5.43;;;13.80;93.80;;;13.49;63.97;102011.34;5074027;28;20278;-71
2023/05/31 01:42:09;;;;;;;8.07;5.33;;;13.80;93.50;;;13.56;63.97;102009.78;5073896;28;20311;-71
2023/05/31 01:44:45;;;;;;;9.83;5.83;;;13.90;93.50;;;13.47;63.81;102005.28;5073626;28;20602;-71
2023/05/31 01:47:21;;;;;;;13.53;6.30;;;13.70;93.50;;;13.50;64.19;102004.13;5073937;28;20217;-71
2023/05/31 01:49:57;;;;;;;8.23;5.13;;;13.80;93.50;;;13.41;64.44;102005.88;5073962;28;20189;-71
2023/05/31 01:52:32;;;;;;;11.70;6.20;;;13.70;93.70;;;13.23;65.11;102010.34;5073751;28;20274;-71
2023/05/31 01:55:07;;;;;;;13.10;5.33;;;13.50;94.10;;;13.32;64.76;102005.94;5073469;28;20674;-71
2023/05/31 01:57:46;;;;;;;7.83;5.37;;;13.60;94.20;;;13.20;64.91;102000.72;5073734;28;20553;-71
2023/05/31 02:00:22;;;;;;;8.93;5.77;;;13.50;94.00;;;13.02;66.39;101994.38;5073440;28;20642;-71
2023/05/31 02:02:57;;;;;;;12.70;5.90;;;13.20;94.40;;;13.10;65.09;102001.75;5073683;28;20313;-71
2023/05/31 02:05:31;;;;;;;9.07;5.63;;;13.30;94.50;;;12.98;65.95;102002.91;5073771;28;20185;-71
2023/05/31 02:08:04;;;;;;;8.00;5.30;;;13.30;94.60;;;12.96;65.51;101992.28;5073519;28;20292;-71
2023/05/31 02:10:38;;;;;;;10.87;5.93;;;13.20;94.70;;;12.91;66.43;101991.84;5073704;28;20213;-71
2023/05/31 02:13:11;;;;;;;7.17;5.70;;;13.20;95.20;;;12.86;67.04;101993.28;5073593;28;20311;-71
2023/05/31 02:15:44;;;;;;;7.50;5.87;;;13.20;95.00;;;12.89;67.20;101987.63;5073390;28;20229;-71
2023/05/31 02:18:18;;;;;;;9.80;6.60;;;13.20;95.20;;;12.90;67.06;101992.88;5073622;28;20276;-71
2023/05/31 02:20:51;;;;;;;15.37;6.47;;;13.20;95.40;;;12.92;66.41;101990.00;5073578;28;20259;-71
2023/05/31 02:23:25;;;;;;;11.47;6.07;;;13.20;95.30;;;12.93;66.50;101989.03;5073508;28;20185;-71
2023/05/31 02:25:59;;;;;;;9.87;5.67;;;13.30;95.20;;;12.93;66.47;101994.41;5073583;28;20193;-71
2023/05/31 02:28:32;;;;;;;10.80;6.00;;;13.20;95.00;;;12.70;67.13;101997.41;5072785;28;20241;-71
2023/05/31 02:31:06;;;;;;;7.67;5.40;;;13.00;95.10;;;12.71;66.57;101993.72;5073083;28;20280;-71
2023/05/31 02:33:40;;;;;;;6.70;5.77;;;13.10;95.00;;;12.61;66.65;102000.97;5073385;28;20301;-71
2023/05/31 02:36:14;;;;;;;9.90;6.30;;;12.90;95.70;;;12.57;66.56;101999.53;5073363;28;20221;-71
2023/05/31 02:38:49;;;;;;;11.17;6.43;;;12.90;95.10;;;12.59;66.18;101986.84;5073094;28;20710;-71
2023/05/31 02:41:22;;;;;;;8.17;5.73;;;13.00;95.10;;;12.53;66.14;101991.94;5073363;28;20312;-71
2023/05/31 02:43:55;;;;;;;7.90;5.53;;;12.80;95.20;;;12.53;66.07;102006.22;5073295;28;20190;-71
2023/05/31 02:46:29;;;;;;;9.17;6.30;;;12.80;95.70;;;12.48;66.76;101999.56;5072972;28;20631;-71
2023/05/31 02:49:03;;;;;;;9.80;6.67;;;12.80;95.50;;;12.50;68.15;101995.72;5073312;28;20200;-71
2023/05/31 02:51:37;;;;;;;8.27;7.10;;;12.80;96.20;;;12.38;68.30;102004.09;5073234;28;20260;-72
2023/05/31 02:54:10;;;;;;;9.17;6.20;;;12.70;96.20;;;12.51;68.03;101989.38;5075896;28;20274;-71
2023/05/31 02:56:43;;;;;;;10.17;6.70;;;12.80;96.40;;;12.43;68.40;101991.91;5080481;28;20229;-72
2023/05/31 02:59:16;;;;;;;9.70;6.10;;;12.80;95.90;;;12.41;67.98;101988.53;5081465;28;20303;-71
2023/05/31 03:01:50;;;;;;;11.60;6.70;;;12.70;96.10;;;12.30;68.51;101991.34;5079905;28;20229;-71
2023/05/31 03:04:23;;;;;;;10.00;6.53;;;12.70;96.60;;;12.26;69.41;101984.56;5077565;28;20201;-71
2023/05/31 03:06:57;;;;;;;9.13;6.33;;;12.60;96.90;;;12.31;68.96;101984.16;5077248;28;20213;-71
2023/05/31 03:09:31;;;;;;;8.40;6.43;;;12.60;96.80;;;12.33;68.36;101980.31;5073693;28;20227;-72
2023/05/31 03:12:05;;;;;;;10.17;6.70;;;12.60;96.70;;;12.34;68.90;101987.41;5072751;28;20658;-72
2023/05/31 03:14:38;;;;;;;13.43;6.80;;;12.70;96.50;;;12.32;68.59;101984.03;5073398;28;20283;-72
2023/05/31 03:17:13;;;;;;;10.03;6.47;;;12.70;96.30;;;12.30;68.56;101979.75;5072595;28;20232;-72
2023/05/31 03:19:46;;;;;;;9.83;6.30;;;12.60;96.70;;;12.22;68.50;101988.53;5072689;28;20279;-72
2023/05/31 03:22:22;;;;;;;10.97;6.93;;;12.60;96.50;;;12.17;68.79;101985.41;5072962;28;20232;-72
2023/05/31 03:24:56;;;;;;;8.07;6.47;;;12.50;96.40;;;12.06;70.11;101985.53;5073079;28;20194;-72
2023/05/31 03:27:30;;;;;;;10.10;6.60;;;12.40;97.00;;;12.03;69.32;101986.69;5072695;28;20190;-72
2023/05/31 03:30:03;;;;;;;11.37;7.03;;;12.40;96.80;;;12.08;69.06;101991.63;5072977;28;20291;-72
2023/05/31 03:32:36;;;;;;;9.13;6.53;;;12.40;96.80;;;12.04;69.10;101995.59;5072828;28;20243;-72
2023/05/31 03:35:12;;;;;;;9.43;6.60;;;12.40;96.50;;;11.97;69.03;101994.44;5072758;28;20241;-72
2023/05/31 03:37:46;;;;;;;13.07;7.23;;;12.30;96.60;;;12.01;69.47;101994.03;5072869;28;20189;-73
2023/05/31 03:40:20;;;;;;;9.03;6.37;;;12.40;96.90;;;11.93;69.95;101998.38;5074932;28;20186;-73
2023/05/31 03:42:54;;;;;;;10.60;7.00;;;12.20;97.00;;;11.94;69.58;102000.94;5076219;28;20589;-73
2023/05/31 03:45:27;;;;;;;8.57;6.80;;;12.30;96.90;;;11.87;70.22;101993.56;5076846;28;20259;-73
2023/05/31 03:48:01;;;;;;;9.10;6.87;;;12.20;97.20;;;11.88;70.21;101993.44;5076225;28;20190;-73
2023/05/31 03:50:34;;;;;;;8.37;6.77;;;12.30;97.00;;;11.90;69.84;101995.97;5076143;28;20243;-73
2023/05/31 03:53:07;;;;;;;11.43;6.80;;;12.20;97.20;;;11.87;69.70;101989.06;5076035;28;20248;-73
2023/05/31 03:55:41;;;;;;;15.70;7.67;;;12.30;97.20;;;11.89;69.32;101983.53;5075978;28;20333;-73
2023/05/31 03:58:14;;;;;;;8.60;7.00;;;12.30;97.10;;;11.85;69.14;101979.47;5076051;28;20236;-73
2023/05/31 04:00:47;;;;;;;12.00;7.30;;;12.20;97.10;;;11.81;70.05;101989.63;5075683;28;20638;-73
2023/05/31 04:03:20;;;;;;;11.40;6.83;;;12.20;97.60;;;11.78;70.27;101981.81;5075944;28;20214;-73
2023/05/31 04:05:54;;;;;;;9.90;6.70;;;12.10;97.40;;;11.83;69.53;101981.41;5075877;28;20186;-72
2023/05/31 04:08:28;;;;;;;10.03;6.90;;;12.20;97.50;;;11.72;70.62;101982.38;5075922;28;20613;-72
2023/05/31 04:11:01;;;;;;;10.10;7.20;;;12.10;97.60;;;11.77;70.78;101981.97;5075829;28;20190;-72
2023/05/31 04:13:35;;;;;;;8.47;6.77;;;12.10;97.80;;;11.74;70.88;101980.44;5075779;28;20243;-72
2023/05/31 04:16:08;;;;;;;10.40;7.10;;;12.10;97.80;;;11.72;70.63;101978.84;5075590;28;20279;-72
2023/05/31 04:18:42;;;;;;;7.33;6.50;;;12.10;97.70;;;11.73;70.79;101983.22;5075679;28;20244;-72
2023/05/31 04:21:15;;;;;;;8.77;6.60;;;12.10;98.00;;;11.69;70.91;101980.78;5075585;28;20312;-72
2023/05/31 04:23:49;;;;;;;12.17;7.80;;;12.10;98.10;;;11.68;71.10;101984.47;5075611;28;20280;-72
2023/05/31 04:26:25;;;;;;;12.80;7.17;;;12.10;98.40;;;11.68;71.26;101984.47;5075537;28;20190;-72
2023/05/31 04:29:00;;;;;;;9.73;7.10;;;12.10;98.20;;;11.62;71.83;101986.84;5075203;28;20689;-72
2023/05/31 04:31:36;;;;;;;8.10;6.50;;;12.20;98.50;;;11.69;71.12;101986.16;5075355;28;20252;-73
2023/05/31 04:34:23;;;;;;;11.63;7.17;;;12.10;98.30;;;11.67;72.08;101984.59;5075320;28;20194;-72
2023/05/31 04:36:57;;;;;;;10.30;6.77;;;12.10;98.50;;;11.63;72.51;101986.72;5075258;28;20305;-73
2023/05/31 04:39:31;;;;;;;11.93;7.07;;;12.00;99.00;;;11.67;72.07;101984.59;5074020;28;20221;-73
2023/05/31 04:42:05;;;;;;;11.13;7.33;;;12.10;98.80;;;11.63;72.70;101992.09;5074256;28;20286;-73
2023/05/31 04:44:39;;;;;;;13.63;8.27;;;12.10;99.20;;;11.56;72.98;101985.56;5073730;28;20199;-73
2023/05/31 04:47:15;;;;;;;10.60;8.00;;;12.00;99.10;;;11.56;72.93;101990.94;5075140;28;20201;-73
2023/05/31 04:49:49;;;;;;;8.87;7.50;;;12.00;99.20;;;11.57;73.91;102002.50;5075111;28;20200;-72
2023/05/31 04:52:30;;;;;;;16.73;8.33;;;12.00;99.40;;;11.61;73.69;101998.53;5074723;28;20225;-72
2023/05/31 04:55:05;;;;;;;11.20;7.43;;;12.00;99.50;;;11.62;73.95;101995.75;5074722;28;20725;-72
2023/05/31 04:57:38;;;;;;;11.43;7.60;;;12.10;99.60;;;11.57;74.42;101992.63;5074935;28;20245;-72
2023/05/31 05:00:16;;;;;;;11.13;7.60;;;12.00;99.80;;;11.58;74.79;101988.94;5074898;28;20282;-71
2023/05/31 05:02:49;;;;;;;12.03;7.17;;;12.00;99.90;;;11.61;74.80;102002.09;5074786;28;20280;-71
2023/05/31 05:05:25;;;;;;;10.13;7.23;;;12.10;99.90;;;11.65;75.07;101990.09;5074490;28;20243;-71
2023/05/31 05:07:59;;;;;;;11.17;7.70;;;12.10;99.90;;;11.70;75.32;101997.75;5074966;28;20182;-72
2023/05/31 05:10:32;;;;;;;10.57;7.03;;;12.20;99.90;;;11.75;74.85;101992.00;5074676;28;20193;-72
2023/05/31 05:13:05;;;;;;;13.47;7.03;;;12.20;99.90;;;11.75;75.30;101994.69;5074591;28;20316;-72
2023/05/31 05:15:39;;;;;;;13.37;7.23;;;12.20;99.90;;;11.78;75.35;101997.09;5074398;28;20217;-72
2023/05/31 05:18:12;;;;;;;15.37;7.40;;;12.30;99.90;;;11.81;75.55;101988.78;5074533;28;20245;-72
2023/05/31 05:20:46;;;;;;;13.33;8.03;;;12.30;99.90;;;11.83;75.82;101990.31;5074363;28;20270;-73
2023/05/31 05:23:19;;;;;;;12.97;7.40;;;12.30;99.90;;;11.87;76.21;101994.44;5074335;28;20251;-73
2023/05/31 05:25:53;;;;;;;12.33;7.43;;;12.40;99.90;;;11.89;76.50;101996.97;5074944;28;20242;-73
2023/05/31 05:28:26;;;;;;;18.20;7.70;;;12.40;99.90;;;11.93;76.70;101999.22;5074328;28;20193;-73
2023/05/31 05:31:00;;;;;;;18.80;8.00;;;12.40;99.90;;;11.93;76.36;101999.22;5073879;28;20190;-73
2023/05/31 05:33:35;;;;;;;13.00;7.27;;;12.40;99.90;;;11.98;76.47;102001.50;5073848;28;20609;-73
2023/05/31 05:36:09;;;;;;;13.27;7.53;;;12.50;99.90;;;12.02;76.26;101992.19;5074143;28;20243;-73
2023/05/31 05:38:42;;;;;;;18.03;7.93;;;12.60;99.90;;;12.06;76.30;102004.34;5074165;28;20630;-73
2023/05/31 05:41:16;;;;;;;19.87;7.50;;;12.60;99.90;;;12.09;76.71;101998.69;5074052;28;20316;-73
2023/05/31 05:43:49;;;;;;;18.80;7.97;;;12.60;99.90;;;12.14;76.21;102004.50;5074153;28;20273;-72
2023/05/31 05:46:22;;;;;;;18.13;7.30;;;12.70;99.90;;;12.13;75.82;102000.97;5074065;28;20281;-72
2023/05/31 05:48:56;;;;;;;18.63;7.33;;;12.70;99.90;;;12.17;75.40;101998.84;5073808;28;20186;-72
2023/05/31 05:51:30;;;;;;;15.90;7.10;;;12.70;99.90;;;12.19;75.21;101996.88;5073980;28;20229;-72
2023/05/31 05:54:04;;;;;;;15.90;6.73;;;12.80;99.90;;;12.24;75.24;101997.28;5074031;28;20224;-72
2023/05/31 05:56:37;;;;;;;16.10;7.03;;;12.80;99.90;;;12.31;75.17;101998.44;5074133;28;20255;-72
2023/05/31 05:59:10;;;;;;;15.90;6.97;;;12.90;99.90;;;12.34;73.76;102003.50;5075019;28;20276;-72
2023/05/31 06:01:44;;;;;;;10.97;6.13;;;12.90;99.70;;;12.37;73.46;102003.22;5074567;28;20225;-72
2023/05/31 06:04:17;;;;;;;13.00;6.83;;;12.90;99.50;;;12.43;73.96;101997.28;5074327;28;20202;-72
2023/05/31 06:06:50;;;;;;;12.27;6.80;;;13.00;99.60;;;12.49;74.15;102004.81;5073822;28;20269;-72
2023/05/31 06:09:24;;;;;;;11.60;6.37;;;13.00;99.60;;;12.56;73.64;102003.25;5073720;28;20657;-72
2023/05/31 06:11:57;;;;;;;8.40;6.23;;;13.10;99.70;;;12.60;73.95;102001.94;5073337;28;20775;-72
2023/05/31 06:14:30;;;;;;;10.23;5.33;;;13.20;99.60;;;12.67;72.90;101997.69;5073665;28;20311;-72
2023/05/31 06:17:04;;;;;;;8.60;5.97;;;13.30;99.20;;;12.74;72.80;101999.84;5073205;28;20253;-66
2023/05/31 06:19:38;;;;;;;10.60;5.97;;;13.30;98.90;;;12.76;71.55;102000.53;5074688;28;20197;-73
2023/05/31 06:22:11;;;;;;;8.37;5.97;;;13.30;98.60;;;12.84;72.08;102004.19;5073505;28;20632;-73
2023/05/31 06:24:46;;;;;;;12.63;6.10;;;13.40;98.80;;;12.87;71.63;102000.38;5074072;28;20217;-73
2023/05/31 06:27:19;;;;;;;12.40;5.83;;;13.40;98.30;;;12.93;74.03;102000.63;5073186;28;20564;-72
2023/05/31 06:29:57;;;;;;;12.03;5.93;;;13.50;99.40;;;12.98;73.78;102000.22;5073459;28;20293;-73
2023/05/31 06:32:31;;;;;;;7.97;5.10;;;13.60;99.30;;;13.04;73.46;101995.09;5073128;28;20709;-73
2023/05/31 06:35:04;;;;;;;7.27;5.10;;;13.60;99.10;;;13.17;70.14;101995.66;5073441;28;20198;-73
2023/05/31 06:37:39;;;;;;;9.70;5.27;;;13.80;97.90;;;13.24;70.74;101998.59;5073320;28;20213;-73
2023/05/31 06:40:14;;;;;;;7.93;4.63;;;13.90;97.90;;;13.31;71.39;101993.47;5073109;28;20221;-73
2023/05/31 06:42:48;;;;;;;9.77;5.13;;;13.90;98.20;;;13.39;67.44;101997.09;5073409;28;20312;-72
2023/05/31 06:45:21;;;;;;;9.73;4.60;;;14.00;96.70;;;13.45;70.04;101993.84;5073310;28;20284;-73
2023/05/31 06:47:55;;;;;;;11.77;5.80;;;14.00;97.30;;;13.55;70.50;101999.19;5073044;28;20689;-73
2023/05/31 06:50:30;;;;;;;11.70;5.17;;;14.10;97.80;;;13.59;70.94;102000.56;5073287;28;20189;-73
2023/05/31 06:53:04;;;;;;;12.03;5.10;;;14.20;98.00;;;13.66;71.48;101999.81;5072896;28;20577;-73
2023/05/31 06:55:38;;;;;;;9.63;5.20;;;14.30;98.20;;;13.70;70.98;101995.81;5073230;28;20272;-73
2023/05/31 06:58:14;;;;;;;15.83;5.10;;;14.30;97.90;;;13.83;68.97;101990.09;5073135;28;20583;-73
2023/05/31 07:00:48;;;;;;;11.00;4.70;;;14.50;97.20;;;13.90;68.60;101990.34;5073148;28;20273;-73
2023/05/31 07:03:21;;;;;;;13.67;4.37;;;14.50;97.00;;;13.99;68.41;101997.50;5073171;28;20302;-73
2023/05/31 07:05:54;;;;;;;16.63;5.03;;;14.60;96.90;;;14.08;66.42;101988.50;5073118;28;20251;-73
2023/05/31 07:08:28;;;;;;;10.07;4.60;;;14.70;95.90;;;14.17;66.58;101982.22;5072772;28;20650;-73
2023/05/31 07:11:01;;;;;;;14.80;4.60;;;14.70;96.20;;;14.29;65.89;101983.66;5072987;28;20194;-73
2023/05/31 07:13:34;;;;;;;11.30;4.17;;;14.90;95.10;;;14.32;66.86;101987.88;5073775;28;20204;-73
2023/05/31 07:16:08;;;;;;;7.50;3.90;;;14.90;95.90;;;14.39;65.55;101984.47;5076713;28;20220;-73
2023/05/31 07:18:41;;;;;;;10.70;3.90;;;15.00;95.10;;;14.46;67.74;101988.22;5076444;28;20206;-73
2023/05/31 07:21:14;;;;;;;14.53;3.90;;;15.10;96.10;;;14.52;68.07;101987.59;5076652;28;20257;-73
2023/05/31 07:23:48;;;;;;;9.27;4.00;;;15.10;96.50;;;14.62;66.04;101987.53;5076660;28;20562;-73
2023/05/31 07:26:22;;;;;;;8.43;4.00;;;15.20;95.20;;;14.70;65.08;101985.72;5076586;28;20182;-73
2023/05/31 07:28:55;;;;;;;10.03;4.33;;;15.30;94.90;;;14.85;64.47;101985.16;5076531;28;20276;-73
2023/05/31 07:31:29;;;;;;;9.13;4.17;;;15.40;94.50;;;14.91;64.39;101988.06;5076523;28;20316;-73
2023/05/31 07:34:03;;;;;;;11.90;4.30;;;15.50;94.50;;;14.94;65.28;101984.22;5076523;28;20221;-73
2023/05/31 07:36:36;;;;;;;11.97;4.23;;;15.50;94.80;;;15.01;64.88;101982.56;5076164;28;20643;-73
2023/05/31 07:39:10;;;;;;;13.60;4.00;;;15.60;94.60;;;15.09;64.72;101985.34;5076374;28;20210;-73
2023/05/31 07:41:44;;;;;;;16.00;4.20;;;15.70;94.70;;;15.22;66.71;101983.03;5076315;28;20233;-73
2023/05/31 07:44:19;;;;;;;12.50;4.50;;;15.80;95.90;;;15.37;63.67;101984.16;5076001;28;20634;-73
2023/05/31 07:46:53;;;;;;;9.63;3.30;;;16.00;94.30;;;15.51;62.76;101975.47;5075991;28;20276;-73
2023/05/31 07:49:26;;;;;;;9.10;4.13;;;16.20;93.30;;;15.57;62.29;101969.41;5076165;28;20558;-73
2023/05/31 07:52:01;;;;;;;11.57;4.03;;;16.20;93.30;;;15.68;61.65;101976.38;5076103;28;20225;-73
2023/05/31 07:54:34;;;;;;;12.10;4.17;;;16.20;93.50;;;15.80;60.61;101969.66;5075838;28;20640;-73
2023/05/31 07:57:10;;;;;;;13.73;4.20;;;16.40;92.30;;;15.84;60.67;101972.88;5076093;28;20228;-73
2023/05/31 07:59:43;;;;;;;8.07;3.90;;;16.40;92.80;;;15.91;59.19;101968.50;5075735;28;20236;-73
2023/05/31 08:02:17;;;;;;;6.70;3.63;;;16.40;92.00;;;16.05;58.23;101974.09;5075641;28;20316;-73
2023/05/31 08:04:51;;;;;;;7.87;3.70;;;16.60;91.10;;;16.09;60.13;101969.22;5075950;28;20190;-73
2023/05/31 08:07:24;;;;;;;12.67;3.80;;;16.60;91.80;;;16.11;63.40;101964.47;5075931;28;20284;-73
2023/05/31 08:09:58;;;;;;;5.70;3.33;;;16.70;93.50;;;16.32;59.63;101964.84;5075790;28;20196;-73
2023/05/31 08:12:31;;;;;;;8.17;3.20;;;16.90;91.60;;;16.40;59.69;101962.16;5076051;28;20316;-73
2023/05/31 08:15:05;;;;;;;12.73;3.37;;;16.90;92.10;;;16.46;58.57;101966.03;5075827;28;20197;-72
2023/05/31 08:17:39;;;;;;;6.00;3.23;;;17.00;90.90;;;16.58;57.06;101965.56;5075587;28;20304;-72
2023/05/31 08:20:16;;;;;;;8.27;3.37;;;17.20;90.20;;;16.70;55.42;101964.22;5075747;28;20239;-72
2023/05/31 08:22:50;;;;;;;4.87;3.00;;;17.30;88.40;;;16.94;55.17;101952.50;5075591;28;20270;-72
2023/05/31 08:25:24;;;;;;;6.47;2.97;;;17.50;87.00;;;16.97;54.70;101954.84;5074832;28;20186;-72
2023/05/31 08:27:58;;;;;;;8.03;3.10;;;17.50;86.30;;;17.12;53.27;101952.28;5075366;28;20228;-72
2023/05/31 08:30:31;;;;;;;8.50;3.40;;;17.70;85.10;;;17.27;53.31;101945.13;5075563;28;20248;-73
2023/05/31 08:33:05;;;;;;;5.43;3.27;;;17.70;84.40;;;17.33;52.79;101944.41;5075440;28;20263;-73
2023/05/31 08:35:40;;;;;;;6.57;2.83;;;17.80;84.40;;;17.36;53.95;101949.50;5075419;28;20221;-73
2023/05/31 08:38:13;;;;;;;5.03;2.90;;;17.90;84.70;;;17.36;53.69;101949.50;5074994;28;20732;-73
2023/05/31 08:40:48;;;;;;;6.63;3.10;;;17.90;85.10;;;17.54;51.74;101949.22;5075248;28;20200;-73
2023/05/31 08:43:26;;;;;;;6.03;3.20;;;18.10;82.90;;;17.79;52.17;101941.88;5075297;28;20194;-73
2023/05/31 08:46:01;;;;;;;6.30;2.87;;;18.20;83.70;;;17.84;52.04;101939.47;5075466;28;20237;-73
2023/05/31 08:48:43;;;;;;;7.80;3.37;;;18.30;81.50;;;18.05;49.81;101939.66;5075134;28;20204;-73
2023/05/31 08:51:19;;;;;;;5.33;3.20;;;18.50;79.80;;;18.00;53.34;101939.38;5075045;28;20260;-73
2023/05/31 08:53:54;;;;;;;7.40;2.90;;;18.50;84.00;;;18.21;49.61;101934.13;5075037;28;20189;-73
2023/05/31 08:56:28;;;;;;;5.43;2.63;;;18.70;79.10;;;18.39;48.48;101936.53;5075541;28;20225;-73
2023/05/31 08:59:03;;;;;;;6.43;2.80;;;18.90;77.90;;;18.43;45.78;101935.97;5074876;28;20213;-72
2023/05/31 09:01:38;;;;;;;8.10;2.57;;;19.00;73.30;;;18.49;46.93;101927.09;5074548;28;20252;-73
2023/05/31 09:04:14;;;;;;;3.53;2.30;;;19.00;75.60;;;18.52;48.77;101925.94;5074563;28;20189;-73
2023/05/31 09:06:48;;;;;;;5.30;2.70;;;19.00;77.10;;;18.62;49.65;101921.94;5074718;28;20555;-72
2023/05/31 09:09:21;;;;;;;5.37;2.47;;;19.20;78.70;;;18.65;50.24;101927.00;5075318;28;20276;-73
2023/05/31 09:11:57;;;;;;;7.13;3.00;;;19.20;78.50;;;18.84;48.79;101922.03;5074892;28;20252;-72
2023/05/31 09:14:32;;;;;;;6.37;2.53;;;19.30;78.00;;;19.09;48.61;101918.91;5074947;28;20202;-73
2023/05/31 09:17:07;;;;;;;6.47;2.67;;;19.60;77.00;;;19.25;47.02;101913.25;5074250;28;20308;-72
2023/05/31 09:19:53;;;;;;;5.67;2.50;;;19.70;74.50;;;19.39;47.61;101911.56;5074476;28;20205;-72
2023/05/31 09:22:28;;;;;;;4.63;2.73;;;19.80;74.30;;;19.41;46.53;101909.53;5074433;28;20257;-72
2023/05/31 09:25:02;;;;;;;4.27;2.87;;;19.90;73.50;;;19.51;47.41;101918.25;5074436;28;20605;-72
2023/05/31 09:27:42;;;;;;;7.67;2.80;;;20.00;75.20;;;19.54;46.42;101925.16;5074508;28;20246;-72
2023/05/31 09:30:18;;;;;;;6.30;2.80;;;20.00;72.90;;;19.59;45.83;101923.53;5074348;28;20193;-72
2023/05/31 09:33:00;;;;;;;6.73;2.57;;;20.10;71.60;;;19.76;44.43;101920.63;5074239;28;20248;-72
2023/05/31 09:35:34;;;;;;;4.23;2.53;;;20.20;71.00;;;19.79;44.77;101917.50;5073946;28;20186;-72
2023/05/31 09:38:10;;;;;;;5.30;2.83;;;20.20;70.10;;;19.89;44.00;101921.59;5074086;28;20185;-72
2023/05/31 09:40:46;;;;;;;5.03;2.67;;;20.30;70.10;;;20.04;44.13;101911.50;5074212;28;20189;-73
2023/05/31 09:43:21;;;;;;;6.93;2.73;;;20.50;69.50;;;20.23;43.40;101910.88;5074125;28;20276;-73
2023/05/31 09:45:54;;;;;;;4.47;2.60;;;20.60;69.50;;;20.40;42.59;101908.75;5074263;28;20238;-73
2023/05/31 09:48:28;;;;;;;5.17;2.70;;;20.80;66.80;;;20.47;44.15;101904.19;5074281;28;20223;-73
2023/05/31 09:51:02;;;;;;;3.97;2.40;;;20.90;68.80;;;20.62;41.07;101909.53;5073619;28;20711;-73
2023/05/31 09:53:40;;;;;;;4.87;2.50;;;21.00;65.70;;;20.60;41.61;101898.84;5073944;28;20277;-73
2023/05/31 09:56:23;;;;;;;4.30;2.47;;;21.00;65.60;;;20.58;41.30;101898.19;5073909;28;20217;-73
2023/05/31 09:58:58;;;;;;;5.23;2.67;;;21.00;64.80;;;20.65;42.56;101893.63;5073523;28;20256;-73
2023/05/31 10:01:32;;;;;;;3.77;2.37;;;21.00;65.90;;;20.75;44.58;101896.03;5073475;28;20701;-73
2023/05/31 10:04:06;;;;;;;4.67;2.40;;;21.10;70.40;;;20.88;42.39;101884.38;5073480;28;20192;-73
2023/05/31 10:06:40;;;;;;;4.87;2.70;;;21.20;66.00;;;20.96;43.32;101886.97;5073908;28;20196;-73
2023/05/31 10:09:15;;;;;;;7.33;2.97;;;21.30;66.80;;;21.16;42.14;101882.50;5073736;28;20268;-73
2023/05/31 10:11:54;;;;;;;6.17;2.80;;;21.50;65.40;;;21.25;42.82;101884.00;5073631;28;20230;-73
2023/05/31 10:14:38;;;;;;;5.47;2.37;;;21.60;65.50;;;21.40;39.86;101884.69;5073612;28;20197;-73
2023/05/31 10:17:20;;;;;;;9.87;2.60;;;21.80;61.40;;;21.51;39.87;101886.81;5073475;28;20213;-73
2023/05/31 10:20:04;;;;;;;6.50;2.83;;;21.80;62.40;;;21.54;39.00;101880.94;5073245;28;20716;-73
2023/05/31 10:22:44;;;;;;;4.63;2.30;;;21.90;59.70;;;21.54;37.82;101880.13;5073168;28;20709;-73
2023/05/31 10:25:29;;;;;;;3.70;2.30;;;21.90;58.80;;;21.57;41.10;101880.56;5073509;28;20284;-73
2023/05/31 10:28:12;;;;;;;6.93;2.60;;;21.90;61.90;;;21.67;39.74;101881.00;5073561;28;20297;-73
2023/05/31 10:30:50;;;;;;;6.13;2.13;;;22.00;61.50;;;21.84;40.07;101875.16;5073497;28;20186;-73
2023/05/31 10:33:30;;;;;;;5.60;2.47;;;22.20;61.60;;;21.94;40.70;101875.63;5073488;28;20194;-73
2023/05/31 10:36:04;;;;;;;3.93;2.10;;;22.30;61.60;;;22.06;36.66;101874.81;5073192;28;20737;-73
2023/05/31 10:38:49;;;;;;;5.43;2.57;;;22.40;57.10;;;22.22;39.67;101876.31;5073049;28;20632;-73
2023/05/31 10:41:35;;;;;;;6.13;2.57;;;22.50;60.40;;;22.15;37.53;101878.19;5073029;28;20717;-73